sensor_id;sensor_type;location;lat;lon;timestamp;P1;P2;P0
75960;PMS7003;64644;48.914;2.254;2023-11-19T00:01:45;1.50;1.50;0.50
75960;PMS7003;64644;48.914;2.254;2023-11-19T00:04:12;0.50;0.00;0.00
75960;PMS7003;64644;48.914;2.254;2023-11-19T00:06:37;0.00;0.00;0.00
75960;PMS7003;64644;48.914;2.254;2023-11-19T00:09:03;1.00;1.00;0.00
75960;PMS7003;64644;48.914;2.254;2023-11-19T00:11:29;3.75;1.25;1.00
75960;PMS7003;64644;48.914;2.254;2023-11-19T00:13:54;0.50;0.00;0.00
75960;PMS7003;64644;48.914;2.254;2023-11-19T00:16:20;0.25;0.25;0.00
75960;PMS7003;64644;48.914;2.254;2023-11-19T00:18:45;0.00;0.00;0.00
75960;PMS7003;64644;48.914;2.254;2023-11-19T00:21:10;1.00;0.00;0.00
75960;PMS7003;64644;48.914;2.254;2023-11-19T00:23:36;0.00;0.00;0.00
75960;PMS7003;64644;48.914;2.254;2023-11-19T00:26:02;0.00;0.00;0.00
75960;PMS7003;64644;48.914;2.254;2023-11-19T00:28:27;0.00;0.00;0.00
75960;PMS7003;64644;48.914;2.254;2023-11-19T00:30:53;0.50;0.00;0.00
75960;PMS7003;64644;48.914;2.254;2023-11-19T00:33:19;0.00;0.00;0.00
75960;PMS7003;64644;48.914;2.254;2023-11-19T00:35:44;2.00;0.25;0.00
75960;PMS7003;64644;48.914;2.254;2023-11-19T00:38:09;0.00;0.00;0.00
75960;PMS7003;64644;48.914;2.254;2023-11-19T00:40:35;0.00;0.00;0.00
75960;PMS7003;64644;48.914;2.254;2023-11-19T00:43:00;0.00;0.00;0.00
75960;PMS7003;64644;48.914;2.254;2023-11-19T00:45:26;0.00;0.00;0.00
75960;PMS7003;64644;48.914;2.254;2023-11-19T00:47:52;1.25;0.50;0.00
75960;PMS7003;64644;48.914;2.254;2023-11-19T00:50:17;0.00;0.00;0.00
75960;PMS7003;64644;48.914;2.254;2023-11-19T00:52:42;0.00;0.00;0.00
75960;PMS7003;64644;48.914;2.254;2023-11-19T00:55:08;0.25;0.25;0.00
75960;PMS7003;64644;48.914;2.254;2023-11-19T00:57:33;1.00;1.00;0.50
75960;PMS7003;64644;48.914;2.254;2023-11-19T00:59:59;0.00;0.00;0.00
75960;PMS7003;64644;48.914;2.254;2023-11-19T01:02:26;0.00;0.00;0.00
75960;PMS7003;64644;48.914;2.254;2023-11-19T01:04:51;0.00;0.00;0.00
75960;PMS7003;64644;48.914;2.254;2023-11-19T01:07:17;0.00;0.00;0.00
75960;PMS7003;64644;48.914;2.254;2023-11-19T01:09:42;0.00;0.00;0.00
75960;PMS7003;64644;48.914;2.254;2023-11-19T01:12:08;0.00;0.00;0.00
75960;PMS7003;64644;48.914;2.254;2023-11-19T01:14:37;0.00;0.00;0.00
75960;PMS7003;64644;48.914;2.254;2023-11-19T01:17:03;1.25;0.00;0.00
75960;PMS7003;64644;48.914;2.254;2023-11-19T01:19:29;1.00;0.00;0.00
75960;PMS7003;64644;48.914;2.254;2023-11-19T01:21:55;0.00;0.00;0.00
75960;PMS7003;64644;48.914;2.254;2023-11-19T01:24:20;0.00;0.00;0.00
75960;PMS7003;64644;48.914;2.254;2023-11-19T01:26:46;2.00;0.00;0.00
75960;PMS7003;64644;48.914;2.254;2023-11-19T01:29:12;0.00;0.00;0.00
75960;PMS7003;64644;48.914;2.254;2023-11-19T01:31:43;0.00;0.00;0.00
75960;PMS7003;64644;48.914;2.254;2023-11-19T01:34:10;0.00;0.00;0.00
75960;PMS7003;64644;48.914;2.254;2023-11-19T01:36:36;0.00;0.00;0.00
75960;PMS7003;64644;48.914;2.254;2023-11-19T01:39:02;0.00;0.00;0.00
75960;PMS7003;64644;48.914;2.254;2023-11-19T01:41:29;0.00;0.00;0.00
75960;PMS7003;64644;48.914;2.254;2023-11-19T01:43:54;2.00;1.00;0.00
75960;PMS7003;64644;48.914;2.254;2023-11-19T01:46:19;1.25;1.00;0.25
75960;PMS7003;64644;48.914;2.254;2023-11-19T01:48:45;1.00;1.00;0.00
75960;PMS7003;64644;48.914;2.254;2023-11-19T01:51:15;2.00;1.25;0.50
75960;PMS7003;64644;48.914;2.254;2023-11-19T01:53:41;0.50;0.50;0.00
75960;PMS7003;64644;48.914;2.254;2023-11-19T01:56:08;1.00;1.00;0.00
75960;PMS7003;64644;48.914;2.254;2023-11-19T01:58:35;0.00;0.00;0.00
75960;PMS7003;64644;48.914;2.254;2023-11-19T02:01:01;0.50;0.25;0.00
75960;PMS7003;64644;48.914;2.254;2023-11-19T02:03:29;0.50;0.50;0.00
75960;PMS7003;64644;48.914;2.254;2023-11-19T02:05:57;0.00;0.00;0.00
75960;PMS7003;64644;48.914;2.254;2023-11-19T02:08:23;0.00;0.00;0.00
75960;PMS7003;64644;48.914;2.254;2023-11-19T02:10:48;0.00;0.00;0.00
75960;PMS7003;64644;48.914;2.254;2023-11-19T02:13:14;0.00;0.00;0.00
75960;PMS7003;64644;48.914;2.254;2023-11-19T02:15:41;0.00;0.00;0.00
75960;PMS7003;64644;48.914;2.254;2023-11-19T02:18:23;0.00;0.00;0.00
75960;PMS7003;64644;48.914;2.254;2023-11-19T02:20:52;0.00;0.00;0.00
75960;PMS7003;64644;48.914;2.254;2023-11-19T02:23:19;1.00;1.00;0.00
75960;PMS7003;64644;48.914;2.254;2023-11-19T02:26:10;1.00;1.00;0.00
75960;PMS7003;64644;48.914;2.254;2023-11-19T02:28:31;0.00;0.00;0.00
75960;PMS7003;64644;48.914;2.254;2023-11-19T02:31:01;0.00;0.00;0.00
75960;PMS7003;64644;48.914;2.254;2023-11-19T02:33:26;0.00;0.00;0.00
75960;PMS7003;64644;48.914;2.254;2023-11-19T02:35:52;0.75;0.00;0.00
75960;PMS7003;64644;48.914;2.254;2023-11-19T02:38:17;0.00;0.00;0.00
75960;PMS7003;64644;48.914;2.254;2023-11-19T02:40:42;0.00;0.00;0.00
75960;PMS7003;64644;48.914;2.254;2023-11-19T02:43:08;1.00;0.00;0.00
75960;PMS7003;64644;48.914;2.254;2023-11-19T02:45:33;1.25;0.00;0.00
75960;PMS7003;64644;48.914;2.254;2023-11-19T02:47:59;1.00;1.00;1.00
75960;PMS7003;64644;48.914;2.254;2023-11-19T02:50:26;1.25;1.25;0.00
75960;PMS7003;64644;48.914;2.254;2023-11-19T02:52:52;0.00;0.00;0.00
75960;PMS7003;64644;48.914;2.254;2023-11-19T02:55:19;0.50;0.50;0.00
75960;PMS7003;64644;48.914;2.254;2023-11-19T02:57:44;0.00;0.00;0.00
75960;PMS7003;64644;48.914;2.254;2023-11-19T03:00:22;0.00;0.00;0.00
75960;PMS7003;64644;48.914;2.254;2023-11-19T03:03:10;0.50;0.50;0.00
75960;PMS7003;64644;48.914;2.254;2023-11-19T03:05:45;0.75;0.75;0.00
75960;PMS7003;64644;48.914;2.254;2023-11-19T03:08:14;1.00;1.00;0.00
75960;PMS7003;64644;48.914;2.254;2023-11-19T03:10:40;1.00;1.00;0.00
75960;PMS7003;64644;48.914;2.254;2023-11-19T03:13:05;1.75;1.00;0.50
75960;PMS7003;64644;48.914;2.254;2023-11-19T03:15:37;2.00;0.00;0.00
75960;PMS7003;64644;48.914;2.254;2023-11-19T03:18:03;0.00;0.00;0.00
75960;PMS7003;64644;48.914;2.254;2023-11-19T03:20:28;0.25;0.25;0.00
75960;PMS7003;64644;48.914;2.254;2023-11-19T03:22:55;0.00;0.00;0.00
75960;PMS7003;64644;48.914;2.254;2023-11-19T03:25:20;1.00;0.00;0.00
75960;PMS7003;64644;48.914;2.254;2023-11-19T03:27:45;0.00;0.00;0.00
75960;PMS7003;64644;48.914;2.254;2023-11-19T03:30:11;1.50;1.50;0.00
75960;PMS7003;64644;48.914;2.254;2023-11-19T03:32:36;0.75;0.75;0.00
75960;PMS7003;64644;48.914;2.254;2023-11-19T03:35:03;0.25;0.00;0.00
75960;PMS7003;64644;48.914;2.254;2023-11-19T03:37:29;0.50;0.25;0.00
75960;PMS7003;64644;48.914;2.254;2023-11-19T03:39:56;1.25;0.00;0.00
75960;PMS7003;64644;48.914;2.254;2023-11-19T03:42:24;0.00;0.00;0.00
75960;PMS7003;64644;48.914;2.254;2023-11-19T03:44:51;0.50;0.00;0.00
75960;PMS7003;64644;48.914;2.254;2023-11-19T03:47:17;0.00;0.00;0.00
75960;PMS7003;64644;48.914;2.254;2023-11-19T03:49:46;1.00;0.00;0.00
75960;PMS7003;64644;48.914;2.254;2023-11-19T03:52:13;2.00;0.00;0.00
75960;PMS7003;64644;48.914;2.254;2023-11-19T03:54:39;0.25;0.25;0.00
75960;PMS7003;64644;48.914;2.254;2023-11-19T03:57:04;2.00;1.25;0.25
75960;PMS7003;64644;48.914;2.254;2023-11-19T03:59:30;1.50;1.00;0.00
75960;PMS7003;64644;48.914;2.254;2023-11-19T04:01:55;0.75;0.75;0.00
75960;PMS7003;64644;48.914;2.254;2023-11-19T04:04:21;0.50;0.50;0.00
75960;PMS7003;64644;48.914;2.254;2023-11-19T04:06:47;0.00;0.00;0.00
75960;PMS7003;64644;48.914;2.254;2023-11-19T04:09:13;0.00;0.00;0.00
75960;PMS7003;64644;48.914;2.254;2023-11-19T04:11:38;0.25;0.00;0.00
75960;PMS7003;64644;48.914;2.254;2023-11-19T04:14:04;0.75;0.75;0.00
75960;PMS7003;64644;48.914;2.254;2023-11-19T04:16:30;0.00;0.00;0.00
75960;PMS7003;64644;48.914;2.254;2023-11-19T04:18:55;1.50;0.00;0.00
75960;PMS7003;64644;48.914;2.254;2023-11-19T04:21:21;0.00;0.00;0.00
75960;PMS7003;64644;48.914;2.254;2023-11-19T04:23:47;0.00;0.00;0.00
75960;PMS7003;64644;48.914;2.254;2023-11-19T04:26:13;1.00;0.00;0.00
75960;PMS7003;64644;48.914;2.254;2023-11-19T04:28:38;0.00;0.00;0.00
75960;PMS7003;64644;48.914;2.254;2023-11-19T04:31:04;0.00;0.00;0.00
75960;PMS7003;64644;48.914;2.254;2023-11-19T04:33:30;0.00;0.00;0.00
75960;PMS7003;64644;48.914;2.254;2023-11-19T04:35:56;1.00;1.00;0.00
75960;PMS7003;64644;48.914;2.254;2023-11-19T04:38:21;1.00;1.00;0.00
75960;PMS7003;64644;48.914;2.254;2023-11-19T04:40:46;0.00;0.00;0.00
75960;PMS7003;64644;48.914;2.254;2023-11-19T04:43:12;1.00;1.00;0.00
75960;PMS7003;64644;48.914;2.254;2023-11-19T04:45:38;1.25;1.00;1.00
75960;PMS7003;64644;48.914;2.254;2023-11-19T04:48:04;0.00;0.00;0.00
75960;PMS7003;64644;48.914;2.254;2023-11-19T04:50:30;0.00;0.00;0.00
75960;PMS7003;64644;48.914;2.254;2023-11-19T04:52:55;1.50;1.00;0.00
75960;PMS7003;64644;48.914;2.254;2023-11-19T04:55:21;2.50;1.00;0.00
75960;PMS7003;64644;48.914;2.254;2023-11-19T04:57:46;1.00;1.00;0.00
75960;PMS7003;64644;48.914;2.254;2023-11-19T05:00:12;1.75;0.00;0.00
75960;PMS7003;64644;48.914;2.254;2023-11-19T05:02:38;0.00;0.00;0.00
75960;PMS7003;64644;48.914;2.254;2023-11-19T05:05:04;2.00;1.00;0.25
75960;PMS7003;64644;48.914;2.254;2023-11-19T05:07:30;1.00;0.00;0.00
75960;PMS7003;64644;48.914;2.254;2023-11-19T05:09:55;0.00;0.00;0.00
75960;PMS7003;64644;48.914;2.254;2023-11-19T05:12:21;0.00;0.00;0.00
75960;PMS7003;64644;48.914;2.254;2023-11-19T05:14:47;1.00;1.00;0.00
75960;PMS7003;64644;48.914;2.254;2023-11-19T05:17:15;1.25;0.00;0.00
75960;PMS7003;64644;48.914;2.254;2023-11-19T05:19:42;2.25;2.00;0.00
75960;PMS7003;64644;48.914;2.254;2023-11-19T05:22:08;2.00;0.25;0.00
75960;PMS7003;64644;48.914;2.254;2023-11-19T05:24:33;2.50;1.00;0.00
75960;PMS7003;64644;48.914;2.254;2023-11-19T05:26:59;1.75;0.50;0.00
75960;PMS7003;64644;48.914;2.254;2023-11-19T05:29:24;0.00;0.00;0.00
75960;PMS7003;64644;48.914;2.254;2023-11-19T05:31:50;0.00;0.00;0.00
75960;PMS7003;64644;48.914;2.254;2023-11-19T05:34:15;2.25;1.00;0.00
75960;PMS7003;64644;48.914;2.254;2023-11-19T05:36:40;0.00;0.00;0.00
75960;PMS7003;64644;48.914;2.254;2023-11-19T05:39:06;2.00;1.00;0.00
75960;PMS7003;64644;48.914;2.254;2023-11-19T05:41:31;1.75;1.75;0.75
75960;PMS7003;64644;48.914;2.254;2023-11-19T05:43:56;0.50;0.50;0.00
75960;PMS7003;64644;48.914;2.254;2023-11-19T05:46:21;0.00;0.00;0.00
75960;PMS7003;64644;48.914;2.254;2023-11-19T05:48:47;1.50;1.00;0.00
75960;PMS7003;64644;48.914;2.254;2023-11-19T05:51:13;1.25;1.00;0.00
75960;PMS7003;64644;48.914;2.254;2023-11-19T05:53:40;0.00;0.00;0.00
75960;PMS7003;64644;48.914;2.254;2023-11-19T05:56:05;0.50;0.50;0.00
75960;PMS7003;64644;48.914;2.254;2023-11-19T05:58:34;1.00;1.00;0.00
75960;PMS7003;64644;48.914;2.254;2023-11-19T06:01:01;1.75;1.50;0.00
75960;PMS7003;64644;48.914;2.254;2023-11-19T06:03:27;3.00;0.50;0.00
75960;PMS7003;64644;48.914;2.254;2023-11-19T06:05:53;1.75;1.00;0.00
75960;PMS7003;64644;48.914;2.254;2023-11-19T06:08:19;0.25;0.25;0.00
75960;PMS7003;64644;48.914;2.254;2023-11-19T06:10:45;0.00;0.00;0.00
75960;PMS7003;64644;48.914;2.254;2023-11-19T06:13:12;2.00;0.00;0.00
75960;PMS7003;64644;48.914;2.254;2023-11-19T06:15:41;1.00;1.00;0.00
75960;PMS7003;64644;48.914;2.254;2023-11-19T06:18:07;1.25;1.25;0.00
75960;PMS7003;64644;48.914;2.254;2023-11-19T06:20:33;2.00;2.00;1.00
75960;PMS7003;64644;48.914;2.254;2023-11-19T06:22:58;0.00;0.00;0.00
75960;PMS7003;64644;48.914;2.254;2023-11-19T06:25:24;1.75;1.00;0.00
75960;PMS7003;64644;48.914;2.254;2023-11-19T06:27:51;1.00;1.00;0.00
75960;PMS7003;64644;48.914;2.254;2023-11-19T06:30:17;1.50;0.00;0.00
75960;PMS7003;64644;48.914;2.254;2023-11-19T06:32:42;1.00;0.00;0.00
75960;PMS7003;64644;48.914;2.254;2023-11-19T06:35:08;1.00;1.00;0.00
75960;PMS7003;64644;48.914;2.254;2023-11-19T06:37:34;0.75;0.75;0.25
75960;PMS7003;64644;48.914;2.254;2023-11-19T06:40:00;1.00;1.00;0.00
75960;PMS7003;64644;48.914;2.254;2023-11-19T06:42:25;3.00;0.25;0.25
75960;PMS7003;64644;48.914;2.254;2023-11-19T06:44:50;0.25;0.00;0.00
75960;PMS7003;64644;48.914;2.254;2023-11-19T06:47:16;2.00;1.00;0.00
75960;PMS7003;64644;48.914;2.254;2023-11-19T06:49:43;0.00;0.00;0.00
75960;PMS7003;64644;48.914;2.254;2023-11-19T06:52:09;2.00;1.00;0.75
75960;PMS7003;64644;48.914;2.254;2023-11-19T06:54:34;0.25;0.25;0.00
75960;PMS7003;64644;48.914;2.254;2023-11-19T06:57:00;1.75;1.00;0.75
75960;PMS7003;64644;48.914;2.254;2023-11-19T06:59:25;3.00;2.00;0.00
75960;PMS7003;64644;48.914;2.254;2023-11-19T07:01:51;1.00;0.00;0.00
75960;PMS7003;64644;48.914;2.254;2023-11-19T07:04:16;0.25;0.25;0.00
75960;PMS7003;64644;48.914;2.254;2023-11-19T07:06:41;2.00;1.00;0.00
75960;PMS7003;64644;48.914;2.254;2023-11-19T07:09:07;2.00;1.50;1.00
75960;PMS7003;64644;48.914;2.254;2023-11-19T07:11:43;1.00;1.00;0.50
75960;PMS7003;64644;48.914;2.254;2023-11-19T07:14:10;1.75;1.00;0.00
75960;PMS7003;64644;48.914;2.254;2023-11-19T07:16:36;1.50;1.50;0.00
75960;PMS7003;64644;48.914;2.254;2023-11-19T07:19:02;1.75;0.50;0.50
75960;PMS7003;64644;48.914;2.254;2023-11-19T07:21:31;1.00;1.00;0.00
75960;PMS7003;64644;48.914;2.254;2023-11-19T07:23:57;2.00;2.00;1.75
75960;PMS7003;64644;48.914;2.254;2023-11-19T07:26:23;1.00;1.00;1.00
75960;PMS7003;64644;48.914;2.254;2023-11-19T07:28:49;1.75;1.50;1.00
75960;PMS7003;64644;48.914;2.254;2023-11-19T07:31:15;3.25;1.75;0.00
75960;PMS7003;64644;48.914;2.254;2023-11-19T07:33:40;0.75;0.75;0.00
75960;PMS7003;64644;48.914;2.254;2023-11-19T07:36:08;3.00;2.00;0.75
75960;PMS7003;64644;48.914;2.254;2023-11-19T07:38:33;0.00;0.00;0.00
75960;PMS7003;64644;48.914;2.254;2023-11-19T07:40:59;1.00;1.00;0.00
75960;PMS7003;64644;48.914;2.254;2023-11-19T07:43:24;1.00;1.00;0.00
75960;PMS7003;64644;48.914;2.254;2023-11-19T07:45:49;2.75;2.75;0.75
75960;PMS7003;64644;48.914;2.254;2023-11-19T07:48:15;2.00;2.00;1.00
75960;PMS7003;64644;48.914;2.254;2023-11-19T07:50:40;1.00;1.00;0.25
75960;PMS7003;64644;48.914;2.254;2023-11-19T07:53:06;0.75;0.75;0.25
75960;PMS7003;64644;48.914;2.254;2023-11-19T07:55:32;2.50;1.50;0.00
75960;PMS7003;64644;48.914;2.254;2023-11-19T07:57:58;2.25;0.50;0.00
75960;PMS7003;64644;48.914;2.254;2023-11-19T08:00:23;1.75;1.75;1.00
75960;PMS7003;64644;48.914;2.254;2023-11-19T08:02:48;3.75;1.00;0.00
75960;PMS7003;64644;48.914;2.254;2023-11-19T08:05:14;1.00;1.00;1.00
75960;PMS7003;64644;48.914;2.254;2023-11-19T08:07:39;2.00;1.50;0.00
75960;PMS7003;64644;48.914;2.254;2023-11-19T08:10:04;2.50;1.00;0.50
75960;PMS7003;64644;48.914;2.254;2023-11-19T08:12:30;1.50;1.50;1.00
75960;PMS7003;64644;48.914;2.254;2023-11-19T08:14:56;2.75;2.75;1.50
75960;PMS7003;64644;48.914;2.254;2023-11-19T08:17:23;6.50;6.50;3.00
75960;PMS7003;64644;48.914;2.254;2023-11-19T08:19:49;3.00;3.00;1.50
75960;PMS7003;64644;48.914;2.254;2023-11-19T08:22:14;2.00;2.00;1.00
75960;PMS7003;64644;48.914;2.254;2023-11-19T08:24:40;1.00;1.00;0.75
75960;PMS7003;64644;48.914;2.254;2023-11-19T08:27:05;0.67;0.67;0.00
75960;PMS7003;64644;48.914;2.254;2023-11-19T08:29:30;1.00;1.00;0.00
75960;PMS7003;64644;48.914;2.254;2023-11-19T08:31:56;1.50;1.50;1.00
75960;PMS7003;64644;48.914;2.254;2023-11-19T08:34:21;1.75;1.75;1.00
75960;PMS7003;64644;48.914;2.254;2023-11-19T08:36:49;1.00;1.00;1.00
75960;PMS7003;64644;48.914;2.254;2023-11-19T08:39:15;2.00;1.50;1.00
75960;PMS7003;64644;48.914;2.254;2023-11-19T08:41:41;2.25;1.25;0.00
75960;PMS7003;64644;48.914;2.254;2023-11-19T08:44:07;1.00;1.00;0.00
75960;PMS7003;64644;48.914;2.254;2023-11-19T08:46:32;0.75;0.75;0.75
75960;PMS7003;64644;48.914;2.254;2023-11-19T08:48:57;3.00;1.33;0.00
75960;PMS7003;64644;48.914;2.254;2023-11-19T08:51:23;3.00;2.00;1.00
75960;PMS7003;64644;48.914;2.254;2023-11-19T08:53:49;1.00;1.00;0.00
75960;PMS7003;64644;48.914;2.254;2023-11-19T08:56:15;3.00;2.00;0.00
75960;PMS7003;64644;48.914;2.254;2023-11-19T08:58:40;3.25;2.00;1.00
75960;PMS7003;64644;48.914;2.254;2023-11-19T09:01:05;2.25;0.00;0.00
75960;PMS7003;64644;48.914;2.254;2023-11-19T09:03:31;1.50;1.50;1.00
75960;PMS7003;64644;48.914;2.254;2023-11-19T09:05:56;2.75;1.00;0.00
75960;PMS7003;64644;48.914;2.254;2023-11-19T09:08:22;6.75;3.00;1.00
75960;PMS7003;64644;48.914;2.254;2023-11-19T09:10:47;2.00;2.00;0.25
75960;PMS7003;64644;48.914;2.254;2023-11-19T09:13:13;2.00;2.00;1.00
75960;PMS7003;64644;48.914;2.254;2023-11-19T09:15:38;2.00;2.00;1.00
75960;PMS7003;64644;48.914;2.254;2023-11-19T09:18:03;1.50;1.50;0.25
75960;PMS7003;64644;48.914;2.254;2023-11-19T09:20:29;1.00;1.00;1.00
75960;PMS7003;64644;48.914;2.254;2023-11-19T09:23:02;3.00;1.50;1.00
75960;PMS7003;64644;48.914;2.254;2023-11-19T09:25:28;2.00;0.75;0.50
75960;PMS7003;64644;48.914;2.254;2023-11-19T09:27:53;1.50;1.25;0.75
75960;PMS7003;64644;48.914;2.254;2023-11-19T09:30:18;3.00;1.00;0.50
75960;PMS7003;64644;48.914;2.254;2023-11-19T09:32:44;3.50;3.50;1.00
75960;PMS7003;64644;48.914;2.254;2023-11-19T09:35:09;3.50;3.00;1.00
75960;PMS7003;64644;48.914;2.254;2023-11-19T09:37:38;5.50;2.50;1.00
75960;PMS7003;64644;48.914;2.254;2023-11-19T09:40:04;1.00;1.00;0.00
75960;PMS7003;64644;48.914;2.254;2023-11-19T09:42:30;4.00;3.00;1.00
75960;PMS7003;64644;48.914;2.254;2023-11-19T09:45:01;1.50;1.25;0.00
75960;PMS7003;64644;48.914;2.254;2023-11-19T09:47:31;3.75;2.00;1.00
75960;PMS7003;64644;48.914;2.254;2023-11-19T09:49:56;1.50;1.50;1.00
75960;PMS7003;64644;48.914;2.254;2023-11-19T09:52:22;3.75;2.00;2.00
75960;PMS7003;64644;48.914;2.254;2023-11-19T09:54:49;3.50;2.25;1.00
75960;PMS7003;64644;48.914;2.254;2023-11-19T09:57:14;3.50;3.00;1.00
75960;PMS7003;64644;48.914;2.254;2023-11-19T09:59:42;1.25;1.00;0.50
75960;PMS7003;64644;48.914;2.254;2023-11-19T10:02:08;2.75;2.50;0.75
75960;PMS7003;64644;48.914;2.254;2023-11-19T10:04:34;3.75;2.25;1.00
75960;PMS7003;64644;48.914;2.254;2023-11-19T10:07:02;2.00;2.00;1.50
75960;PMS7003;64644;48.914;2.254;2023-11-19T10:09:27;1.50;1.25;0.75
75960;PMS7003;64644;48.914;2.254;2023-11-19T10:11:52;7.50;3.00;1.50
75960;PMS7003;64644;48.914;2.254;2023-11-19T10:14:19;5.50;3.00;1.00
75960;PMS7003;64644;48.914;2.254;2023-11-19T10:16:48;4.00;3.50;2.00
75960;PMS7003;64644;48.914;2.254;2023-11-19T10:19:20;2.00;1.75;0.75
75960;PMS7003;64644;48.914;2.254;2023-11-19T10:21:46;5.50;2.00;0.25
75960;PMS7003;64644;48.914;2.254;2023-11-19T10:24:11;2.50;1.50;1.00
75960;PMS7003;64644;48.914;2.254;2023-11-19T10:26:37;4.00;2.75;1.00
75960;PMS7003;64644;48.914;2.254;2023-11-19T10:29:02;2.00;1.00;0.00
75960;PMS7003;64644;48.914;2.254;2023-11-19T10:31:29;3.25;3.25;1.00
75960;PMS7003;64644;48.914;2.254;2023-11-19T10:33:54;2.75;1.50;0.75
75960;PMS7003;64644;48.914;2.254;2023-11-19T10:36:19;4.50;3.00;1.00
75960;PMS7003;64644;48.914;2.254;2023-11-19T10:38:54;3.00;3.00;1.00
75960;PMS7003;64644;48.914;2.254;2023-11-19T10:41:31;2.75;1.00;0.25
75960;PMS7003;64644;48.914;2.254;2023-11-19T10:43:58;2.00;1.00;0.75
75960;PMS7003;64644;48.914;2.254;2023-11-19T10:46:35;8.75;2.75;1.00
75960;PMS7003;64644;48.914;2.254;2023-11-19T10:49:03;6.00;3.00;1.25
75960;PMS7003;64644;48.914;2.254;2023-11-19T10:51:28;3.25;1.50;1.00
75960;PMS7003;64644;48.914;2.254;2023-11-19T10:53:54;2.50;2.50;0.75
75960;PMS7003;64644;48.914;2.254;2023-11-19T10:56:25;1.00;1.00;0.00
75960;PMS7003;64644;48.914;2.254;2023-11-19T10:58:55;2.00;1.00;1.00
75960;PMS7003;64644;48.914;2.254;2023-11-19T11:01:24;4.75;4.00;2.00
75960;PMS7003;64644;48.914;2.254;2023-11-19T11:03:55;3.50;2.00;1.50
75960;PMS7003;64644;48.914;2.254;2023-11-19T11:06:25;3.50;2.50;1.00
75960;PMS7003;64644;48.914;2.254;2023-11-19T11:08:51;2.00;1.00;0.75
75960;PMS7003;64644;48.914;2.254;2023-11-19T11:11:17;2.75;2.75;1.00
75960;PMS7003;64644;48.914;2.254;2023-11-19T11:13:46;5.50;3.25;1.00
75960;PMS7003;64644;48.914;2.254;2023-11-19T11:16:14;2.00;2.00;0.75
75960;PMS7003;64644;48.914;2.254;2023-11-19T11:18:39;3.50;2.50;0.00
75960;PMS7003;64644;48.914;2.254;2023-11-19T11:21:07;2.25;2.25;0.75
75960;PMS7003;64644;48.914;2.254;2023-11-19T11:39:41;3.75;1.50;1.00
75960;PMS7003;64644;48.914;2.254;2023-11-19T11:44:59;9.50;4.50;2.00
75960;PMS7003;64644;48.914;2.254;2023-11-19T11:50:10;4.75;3.00;1.00
75960;PMS7003;64644;48.914;2.254;2023-11-19T11:58:17;2.00;2.00;1.00
75960;PMS7003;64644;48.914;2.254;2023-11-19T12:00:43;1.00;1.00;0.00
75960;PMS7003;64644;48.914;2.254;2023-11-19T12:03:10;3.25;3.00;2.00
75960;PMS7003;64644;48.914;2.254;2023-11-19T12:05:43;3.25;3.25;1.00
75960;PMS7003;64644;48.914;2.254;2023-11-19T12:08:10;4.75;3.00;1.75
75960;PMS7003;64644;48.914;2.254;2023-11-19T12:10:46;1.00;1.00;0.00
75960;PMS7003;64644;48.914;2.254;2023-11-19T12:13:13;1.50;1.50;1.00
75960;PMS7003;64644;48.914;2.254;2023-11-19T12:18:26;2.00;2.00;1.00
75960;PMS7003;64644;48.914;2.254;2023-11-19T12:20:53;2.00;2.00;1.00
75960;PMS7003;64644;48.914;2.254;2023-11-19T12:23:19;4.25;2.50;2.00
75960;PMS7003;64644;48.914;2.254;2023-11-19T12:25:44;2.75;1.75;1.00
75960;PMS7003;64644;48.914;2.254;2023-11-19T12:28:13;1.25;1.25;0.75
75960;PMS7003;64644;48.914;2.254;2023-11-19T12:30:41;4.25;2.75;1.50
75960;PMS7003;64644;48.914;2.254;2023-11-19T12:33:09;3.75;3.50;0.75
75960;PMS7003;64644;48.914;2.254;2023-11-19T12:35:42;2.25;2.00;1.00
75960;PMS7003;64644;48.914;2.254;2023-11-19T12:38:08;7.00;3.00;2.00
75960;PMS7003;64644;48.914;2.254;2023-11-19T12:40:43;3.25;3.00;2.00
75960;PMS7003;64644;48.914;2.254;2023-11-19T12:43:08;1.50;1.50;1.00
75960;PMS7003;64644;48.914;2.254;2023-11-19T12:45:35;3.75;0.50;0.00
75960;PMS7003;64644;48.914;2.254;2023-11-19T12:48:07;3.50;1.75;1.00
75960;PMS7003;64644;48.914;2.254;2023-11-19T12:50:49;5.00;3.50;1.00
75960;PMS7003;64644;48.914;2.254;2023-11-19T12:53:16;3.75;1.75;1.00
75960;PMS7003;64644;48.914;2.254;2023-11-19T12:55:42;3.00;2.25;1.00
75960;PMS7003;64644;48.914;2.254;2023-11-19T12:58:07;3.75;2.00;1.00
75960;PMS7003;64644;48.914;2.254;2023-11-19T13:00:32;1.50;1.00;1.00
75960;PMS7003;64644;48.914;2.254;2023-11-19T13:02:58;4.75;2.00;1.00
75960;PMS7003;64644;48.914;2.254;2023-11-19T13:07:58;6.00;2.75;2.00
75960;PMS7003;64644;48.914;2.254;2023-11-19T13:10:25;3.25;3.25;1.25
75960;PMS7003;64644;48.914;2.254;2023-11-19T13:13:03;3.75;2.75;1.00
75960;PMS7003;64644;48.914;2.254;2023-11-19T13:15:30;2.75;2.00;1.00
75960;PMS7003;64644;48.914;2.254;2023-11-19T13:17:57;5.00;4.25;1.50
75960;PMS7003;64644;48.914;2.254;2023-11-19T13:20:22;3.00;2.00;1.00
75960;PMS7003;64644;48.914;2.254;2023-11-19T13:22:57;3.00;2.67;1.00
75960;PMS7003;64644;48.914;2.254;2023-11-19T13:25:27;3.75;1.50;1.00
75960;PMS7003;64644;48.914;2.254;2023-11-19T13:27:54;2.25;2.25;1.00
75960;PMS7003;64644;48.914;2.254;2023-11-19T13:30:20;4.00;1.00;1.00
75960;PMS7003;64644;48.914;2.254;2023-11-19T13:32:47;3.50;1.75;1.00
75960;PMS7003;64644;48.914;2.254;2023-11-19T13:35:13;6.25;3.00;1.50
75960;PMS7003;64644;48.914;2.254;2023-11-19T13:37:39;3.00;1.75;1.00
75960;PMS7003;64644;48.914;2.254;2023-11-19T13:40:05;4.00;3.00;1.00
75960;PMS7003;64644;48.914;2.254;2023-11-19T13:42:32;4.00;1.00;0.75
75960;PMS7003;64644;48.914;2.254;2023-11-19T13:44:57;3.75;2.75;1.00
75960;PMS7003;64644;48.914;2.254;2023-11-19T13:47:22;6.75;4.25;1.75
75960;PMS7003;64644;48.914;2.254;2023-11-19T13:49:49;7.25;3.25;1.00
75960;PMS7003;64644;48.914;2.254;2023-11-19T13:52:14;4.00;1.75;0.00
75960;PMS7003;64644;48.914;2.254;2023-11-19T13:54:40;2.75;1.25;0.75
75960;PMS7003;64644;48.914;2.254;2023-11-19T13:57:06;2.00;0.00;0.00
75960;PMS7003;64644;48.914;2.254;2023-11-19T13:59:31;3.50;1.00;0.50
75960;PMS7003;64644;48.914;2.254;2023-11-19T14:02:00;1.50;0.75;0.50
75960;PMS7003;64644;48.914;2.254;2023-11-19T14:04:25;4.00;3.00;1.00
75960;PMS7003;64644;48.914;2.254;2023-11-19T14:06:51;3.75;2.50;1.00
75960;PMS7003;64644;48.914;2.254;2023-11-19T14:09:16;2.00;1.00;0.00
75960;PMS7003;64644;48.914;2.254;2023-11-19T14:11:42;4.25;3.00;1.50
75960;PMS7003;64644;48.914;2.254;2023-11-19T14:14:08;3.75;1.50;0.00
75960;PMS7003;64644;48.914;2.254;2023-11-19T14:16:33;4.00;2.00;1.00
75960;PMS7003;64644;48.914;2.254;2023-11-19T14:18:59;3.25;3.00;0.00
75960;PMS7003;64644;48.914;2.254;2023-11-19T14:21:24;6.00;4.00;1.00
75960;PMS7003;64644;48.914;2.254;2023-11-19T14:23:51;3.25;2.25;0.50
75960;PMS7003;64644;48.914;2.254;2023-11-19T14:26:17;3.00;1.00;0.00
75960;PMS7003;64644;48.914;2.254;2023-11-19T14:28:42;3.00;3.00;1.00
75960;PMS7003;64644;48.914;2.254;2023-11-19T14:31:07;1.75;1.75;0.25
75960;PMS7003;64644;48.914;2.254;2023-11-19T14:33:32;3.25;3.25;1.00
75960;PMS7003;64644;48.914;2.254;2023-11-19T14:36:00;2.00;1.75;1.00
75960;PMS7003;64644;48.914;2.254;2023-11-19T14:38:25;5.25;3.00;1.00
75960;PMS7003;64644;48.914;2.254;2023-11-19T14:40:51;1.75;1.25;0.50
75960;PMS7003;64644;48.914;2.254;2023-11-19T14:43:16;6.25;3.00;1.00
75960;PMS7003;64644;48.914;2.254;2023-11-19T14:45:41;1.00;1.00;0.00
75960;PMS7003;64644;48.914;2.254;2023-11-19T14:48:07;2.25;2.25;1.75
75960;PMS7003;64644;48.914;2.254;2023-11-19T14:50:32;4.00;2.00;1.00
75960;PMS7003;64644;48.914;2.254;2023-11-19T14:52:57;1.00;1.00;0.75